createdAt,value
2017-04-11T00:00:27.551Z,1012.86
2017-04-11T00:01:36.763Z,1012.83
2017-04-11T00:02:45.715Z,1012.84
2017-04-11T00:03:54.674Z,1012.81
2017-04-11T00:05:03.632Z,1012.87
2017-04-11T00:06:12.591Z,1012.86
2017-04-11T00:07:22.111Z,1012.86
2017-04-11T00:08:31.061Z,1012.92
2017-04-11T00:09:40.017Z,1012.9
2017-04-11T00:10:49.056Z,1012.93
2017-04-11T00:11:58.007Z,1012.94
2017-04-11T00:13:07.209Z,1012.91
2017-04-11T00:14:16.163Z,1012.98
2017-04-11T00:15:25.121Z,1012.93
2017-04-11T00:16:34.160Z,1012.9
2017-04-11T00:17:43.528Z,1012.98
2017-04-11T00:18:52.738Z,1012.99
2017-04-11T00:20:01.695Z,1012.93
2017-04-11T00:21:10.983Z,1012.97
2017-04-11T00:22:19.933Z,1012.97
2017-04-11T00:23:28.888Z,1012.93
2017-04-11T00:24:38.177Z,1012.96
2017-04-11T00:25:47.130Z,1012.94
2017-04-11T00:26:56.080Z,1012.94
2017-04-11T00:28:05.036Z,1012.86
2017-04-11T00:29:13.992Z,1012.94
2017-04-11T00:30:23.205Z,1012.91
2017-04-11T00:31:32.163Z,1012.95
2017-04-11T00:32:41.123Z,1012.98
2017-04-11T00:33:50.076Z,1012.91
2017-04-11T00:34:59.026Z,1012.97
2017-04-11T00:36:08.235Z,1012.93
2017-04-11T00:37:17.189Z,1012.93
2017-04-11T00:38:26.140Z,1012.96
2017-04-11T00:39:35.089Z,1012.93
2017-04-11T00:40:44.358Z,1012.93
2017-04-11T00:41:53.562Z,1012.92
2017-04-11T00:43:02.512Z,1012.94
2017-04-11T00:44:11.474Z,1012.91
2017-04-11T00:45:20.516Z,1012.9
2017-04-11T00:46:29.465Z,1012.99
2017-04-11T00:47:38.668Z,1012.94
2017-04-11T00:48:47.631Z,1013.02
2017-04-11T00:49:56.590Z,1012.96
2017-04-11T00:51:05.545Z,1012.94
2017-04-11T00:52:14.497Z,1013.02
2017-04-11T00:53:23.747Z,1013.01
2017-04-11T00:54:32.700Z,1013.01
2017-04-11T00:55:41.651Z,1012.97
2017-04-11T00:56:50.609Z,1013.03
2017-04-11T00:57:59.562Z,1012.95
2017-04-11T00:59:08.768Z,1012.97
2017-04-11T01:00:17.716Z,1012.97
2017-04-11T01:01:26.669Z,1012.95
2017-04-11T01:02:35.619Z,1012.91
2017-04-11T01:03:44.571Z,1012.97
2017-04-11T01:04:53.781Z,1012.96
2017-04-11T01:06:02.730Z,1012.94
2017-04-11T01:07:11.682Z,1012.91
2017-04-11T01:08:20.724Z,1012.94
2017-04-11T01:09:29.675Z,1012.88
2017-04-11T01:10:38.872Z,1012.96
2017-04-11T01:11:47.821Z,1012.94
2017-04-11T01:12:56.777Z,1012.92
2017-04-11T01:14:05.740Z,1012.91
2017-04-11T01:15:14.697Z,1012.98
2017-04-11T01:16:23.896Z,1012.96
2017-04-11T01:17:32.855Z,1012.91
2017-04-11T01:18:41.903Z,1012.94
2017-04-11T01:19:50.859Z,1012.94
2017-04-11T01:20:59.819Z,1012.95
2017-04-11T01:22:09.110Z,1012.93
2017-04-11T01:23:18.386Z,1012.94
2017-04-11T01:24:27.353Z,1012.9
2017-04-11T01:25:36.309Z,1012.94
2017-04-11T01:26:45.353Z,1012.88
2017-04-11T01:27:54.560Z,1012.95
2017-04-11T01:29:03.520Z,1012.88
2017-04-11T01:30:12.487Z,1012.85
2017-04-11T01:31:21.441Z,1012.87
2017-04-11T01:32:30.392Z,1012.95
2017-04-11T01:33:39.676Z,1012.9
2017-04-11T01:34:48.628Z,1012.95
2017-04-11T01:35:57.585Z,1012.98
2017-04-11T01:37:06.546Z,1013.02
2017-04-11T01:38:15.502Z,1012.96
2017-04-11T01:39:24.717Z,1012.94
2017-04-11T01:40:33.756Z,1012.96
2017-04-11T01:41:42.709Z,1013.02
2017-04-11T01:42:51.664Z,1012.98
2017-04-11T01:44:00.614Z,1012.98
2017-04-11T01:45:09.985Z,1013.05
2017-04-11T01:46:19.024Z,1012.99
2017-04-11T01:47:27.979Z,1013
2017-04-11T01:48:37.102Z,1012.98
2017-04-11T01:49:46.051Z,1012.99
2017-04-11T01:50:55.255Z,1013.01
2017-04-11T01:52:04.211Z,1013.03
2017-04-11T01:53:13.165Z,1013.01
2017-04-11T01:54:22.124Z,1013.05
2017-04-11T01:55:31.162Z,1013.03
2017-04-11T01:56:40.362Z,1013.07
2017-04-11T01:57:49.317Z,1013.09
2017-04-11T01:58:58.279Z,1013.11
2017-04-11T02:00:07.237Z,1013.09
2017-04-11T02:01:16.191Z,1013.04
2017-04-11T02:02:25.402Z,1013.09
2017-04-11T02:03:34.359Z,1013.06
2017-04-11T02:04:43.316Z,1013.12
2017-04-11T02:05:52.270Z,1013.16
2017-04-11T02:07:01.311Z,1013.19
2017-04-11T02:08:10.514Z,1013.19
2017-04-11T02:09:19.471Z,1013.24
2017-04-11T02:10:28.427Z,1013.2
2017-04-11T02:11:37.384Z,1013.24
2017-04-11T02:12:46.369Z,1013.25
2017-04-11T02:13:55.576Z,1013.3
2017-04-11T02:15:04.529Z,1013.3
2017-04-11T02:16:13.475Z,1013.31
2017-04-11T02:17:22.419Z,1013.31
2017-04-11T02:18:31.372Z,1013.25
2017-04-11T02:19:40.656Z,1013.33
2017-04-11T02:20:49.608Z,1013.28
2017-04-11T02:21:58.559Z,1013.27
2017-04-11T02:23:07.513Z,1013.26
2017-04-11T02:24:16.474Z,1013.28
2017-04-11T02:25:25.733Z,1013.23
2017-04-11T02:26:34.689Z,1013.25
2017-04-11T02:27:43.729Z,1013.2
2017-04-11T02:28:52.776Z,1013.2
2017-04-11T02:30:01.733Z,1013.21
2017-04-11T02:31:11.275Z,1013.22
2017-04-11T02:32:20.353Z,1013.21
2017-04-11T02:33:29.316Z,1013.23
2017-04-11T02:34:38.310Z,1013.27
2017-04-11T02:35:47.272Z,1013.23
2017-04-11T02:36:56.477Z,1013.24
2017-04-11T02:38:05.425Z,1013.3
2017-04-11T02:39:14.386Z,1013.31
2017-04-11T02:40:23.345Z,1013.31
2017-04-11T02:41:32.295Z,1013.26
2017-04-11T02:42:41.504Z,1013.27
2017-04-11T02:43:50.540Z,1013.25
2017-04-11T02:44:59.502Z,1013.32
2017-04-11T02:46:08.787Z,1013.33
2017-04-11T02:47:17.740Z,1013.37
2017-04-11T02:48:27.036Z,1013.29
2017-04-11T02:49:35.993Z,1013.27
2017-04-11T02:50:44.943Z,1013.27
2017-04-11T02:51:53.893Z,1013.32
2017-04-11T02:53:02.931Z,1013.28
2017-04-11T02:54:12.136Z,1013.34
2017-04-11T02:55:21.088Z,1013.36
2017-04-11T02:56:30.064Z,1013.33
2017-04-11T02:57:39.376Z,1013.27
2017-04-11T02:58:48.326Z,1013.35
2017-04-11T02:59:57.537Z,1013.36
2017-04-11T03:01:06.489Z,1013.35
2017-04-11T03:02:15.443Z,1013.35
2017-04-11T03:03:24.488Z,1013.36
2017-04-11T03:04:33.442Z,1013.4
2017-04-11T03:05:42.650Z,1013.36
2017-04-11T03:06:51.931Z,1013.36
2017-04-11T03:08:00.883Z,1013.44
2017-04-11T03:09:09.932Z,1013.44
2017-04-11T03:10:18.886Z,1013.42
2017-04-11T03:11:28.089Z,1013.42
2017-04-11T03:12:37.037Z,1013.42
2017-04-11T03:13:46.406Z,1013.48
2017-04-11T03:14:55.360Z,1013.44
2017-04-11T03:16:04.319Z,1013.49
2017-04-11T03:17:13.616Z,1013.4
2017-04-11T03:18:22.571Z,1013.48
2017-04-11T03:19:31.533Z,1013.37
2017-04-11T03:20:40.573Z,1013.45
2017-04-11T03:21:49.527Z,1013.39
2017-04-11T03:22:58.740Z,1013.5
2017-04-11T03:24:07.695Z,1013.42
2017-04-11T03:25:16.649Z,1013.5
2017-04-11T03:26:25.609Z,1013.5
2017-04-11T03:27:34.561Z,1013.5
2017-04-11T03:28:43.775Z,1013.46
2017-04-11T03:29:52.728Z,1013.53
2017-04-11T03:31:01.694Z,1013.48
2017-04-11T03:32:10.984Z,1013.46
2017-04-11T03:33:20.260Z,1013.57
2017-04-11T03:34:29.798Z,1013.52
2017-04-11T03:35:38.744Z,1013.55
2017-04-11T03:36:47.786Z,1013.6
2017-04-11T03:37:56.741Z,1013.57
2017-04-11T03:39:05.788Z,1013.58
2017-04-11T03:40:14.993Z,1013.59
2017-04-11T03:41:23.946Z,1013.56
2017-04-11T03:42:32.894Z,1013.61
2017-04-11T03:43:42.021Z,1013.66
2017-04-11T03:44:50.978Z,1013.65
2017-04-11T03:46:00.184Z,1013.71
2017-04-11T03:47:09.134Z,1013.72
2017-04-11T03:48:18.088Z,1013.77
2017-04-11T03:49:27.043Z,1013.79
2017-04-11T03:50:35.998Z,1013.88
2017-04-11T03:51:45.209Z,1013.87
2017-04-11T03:52:54.156Z,1013.84
2017-04-11T03:54:03.107Z,1013.87
2017-04-11T03:55:12.061Z,1013.92
2017-04-11T03:56:21.011Z,1013.89
2017-04-11T03:57:30.301Z,1013.91
2017-04-11T03:58:39.257Z,1013.92
2017-04-11T03:59:48.204Z,1013.91
2017-04-11T04:00:57.152Z,1013.97
2017-04-11T04:02:06.109Z,1014
2017-04-11T04:03:15.311Z,1014.03
2017-04-11T04:04:24.273Z,1014.01
2017-04-11T04:05:33.227Z,1014.01
2017-04-11T04:06:42.179Z,1014.08
2017-04-11T04:07:51.129Z,1014.01
2017-04-11T04:09:00.342Z,1014.07
2017-04-11T04:10:09.295Z,1014.08
2017-04-11T04:11:18.246Z,1014
2017-04-11T04:12:27.195Z,1014.08
2017-04-11T04:13:36.237Z,1014.11
2017-04-11T04:14:45.441Z,1014.11
2017-04-11T04:15:54.412Z,1014.12
2017-04-11T04:17:03.371Z,1014.17
2017-04-11T04:18:12.409Z,1014.17
2017-04-11T04:19:21.367Z,1014.18
2017-04-11T04:20:30.568Z,1014.2
2017-04-11T04:21:39.844Z,1014.23
2017-04-11T04:22:48.975Z,1014.25
2017-04-11T04:23:57.928Z,1014.24
2017-04-11T04:25:06.975Z,1014.27
2017-04-11T04:26:16.179Z,1014.3
2017-04-11T04:27:25.133Z,1014.27
2017-04-11T04:28:34.082Z,1014.24
2017-04-11T04:29:43.053Z,1014.28
2017-04-11T04:30:52.004Z,1014.33
2017-04-11T04:32:01.258Z,1014.31
2017-04-11T04:33:10.216Z,1014.33
2017-04-11T04:34:19.256Z,1014.4
2017-04-11T04:35:28.201Z,1014.38
2017-04-11T04:36:37.152Z,1014.43
2017-04-11T04:37:46.357Z,1014.48
2017-04-11T04:38:55.396Z,1014.46
2017-04-11T04:40:04.350Z,1014.51
2017-04-11T04:41:13.639Z,1014.48
2017-04-11T04:42:22.589Z,1014.56
2017-04-11T04:43:31.878Z,1014.59
2017-04-11T04:44:40.970Z,1014.56
2017-04-11T04:45:49.951Z,1014.58
2017-04-11T04:46:58.903Z,1014.64
2017-04-11T04:48:07.884Z,1014.56
2017-04-11T04:49:17.092Z,1014.58
2017-04-11T04:50:26.130Z,1014.59
2017-04-11T04:51:35.082Z,1014.6
2017-04-11T04:52:44.032Z,1014.58
2017-04-11T04:53:53.121Z,1014.61
2017-04-11T04:55:02.373Z,1014.6
2017-04-11T04:56:11.323Z,1014.63
2017-04-11T04:57:20.272Z,1014.61
2017-04-11T04:58:29.220Z,1014.67
2017-04-11T04:59:38.177Z,1014.69
2017-04-11T05:00:47.430Z,1014.65
2017-04-11T05:01:56.566Z,1014.61
2017-04-11T05:03:05.523Z,1014.69
2017-04-11T05:04:14.561Z,1014.65
2017-04-11T05:05:23.598Z,1014.71
2017-04-11T05:06:32.800Z,1014.65
2017-04-11T05:07:41.756Z,1014.7
2017-04-11T05:08:50.717Z,1014.68
2017-04-11T05:09:59.677Z,1014.71
2017-04-11T05:11:08.630Z,1014.74
2017-04-11T05:12:17.881Z,1014.75
2017-04-11T05:13:26.837Z,1014.79
2017-04-11T05:14:35.792Z,1014.71
2017-04-11T05:15:44.853Z,1014.67
2017-04-11T05:16:53.972Z,1014.78
2017-04-11T05:18:03.241Z,1014.76
2017-04-11T05:19:12.440Z,1014.75
2017-04-11T05:20:22.131Z,1014.8
2017-04-11T05:21:31.643Z,1014.84
2017-04-11T05:22:41.048Z,1014.84
2017-04-11T05:23:50.376Z,1014.78
2017-04-11T05:24:59.409Z,1014.76
2017-04-11T05:26:08.771Z,1014.88
2017-04-11T05:27:17.960Z,1014.78
2017-04-11T05:28:27.691Z,1014.82
2017-04-11T05:29:36.944Z,1014.76
2017-04-11T05:30:45.894Z,1014.8
2017-04-11T05:31:54.941Z,1014.82
2017-04-11T05:33:04.015Z,1014.87
2017-04-11T05:34:13.071Z,1014.91
2017-04-11T05:35:22.283Z,1014.86
2017-04-11T05:36:31.242Z,1014.91
2017-04-11T05:37:40.280Z,1014.81
2017-04-11T05:38:49.317Z,1014.83
2017-04-11T05:39:58.268Z,1014.85
2017-04-11T05:41:07.843Z,1014.88
2017-04-11T05:42:16.805Z,1014.87
2017-04-11T05:43:25.969Z,1014.93
2017-04-11T05:44:35.055Z,1014.92
2017-04-11T05:45:44.003Z,1014.96
2017-04-11T05:46:53.295Z,1015.01
2017-04-11T05:48:02.246Z,1015.01
2017-04-11T05:49:11.199Z,1015.07
2017-04-11T05:50:20.153Z,1015.11
2017-04-11T05:51:29.105Z,1015.08
2017-04-11T05:52:38.356Z,1015.06
2017-04-11T05:53:47.314Z,1015.13
2017-04-11T05:54:56.268Z,1015.08
2017-04-11T05:56:05.217Z,1015.11
2017-04-11T05:57:14.168Z,1015.19
2017-04-11T05:58:23.373Z,1015.24
2017-04-11T05:59:32.420Z,1015.22
2017-04-11T06:00:41.369Z,1015.22
2017-04-11T06:01:50.319Z,1015.22
2017-04-11T06:02:59.275Z,1015.22
2017-04-11T06:04:08.476Z,1015.23
2017-04-11T06:05:17.425Z,1015.29
2017-04-11T06:06:26.418Z,1015.23
2017-04-11T06:07:35.455Z,1015.24
2017-04-11T06:08:44.455Z,1015.24
2017-04-11T06:09:53.665Z,1015.26
2017-04-11T06:11:02.703Z,1015.26
2017-04-11T06:12:11.657Z,1015.31
2017-04-11T06:13:20.761Z,1015.28
2017-04-11T06:14:29.797Z,1015.29
2017-04-11T06:15:39.003Z,1015.22
2017-04-11T06:16:47.954Z,1015.24
2017-04-11T06:17:56.907Z,1015.25
2017-04-11T06:19:05.954Z,1015.2
2017-04-11T06:20:14.919Z,1015.19
2017-04-11T06:21:24.124Z,1015.28
2017-04-11T06:22:33.078Z,1015.25
2017-04-11T06:23:42.040Z,1015.39
2017-04-11T06:24:50.993Z,1015.35
2017-04-11T06:25:59.955Z,1015.46
2017-04-11T06:27:09.158Z,1015.46
2017-04-11T06:28:18.111Z,1015.45
2017-04-11T06:29:27.125Z,1015.43
2017-04-11T06:30:36.169Z,1015.47
2017-04-11T06:31:45.123Z,1015.5
2017-04-11T06:32:54.326Z,1015.47
2017-04-11T06:34:03.279Z,1015.46
2017-04-11T06:35:12.242Z,1015.44
2017-04-11T06:36:21.318Z,1015.48
2017-04-11T06:37:30.272Z,1015.51
2017-04-11T06:38:39.527Z,1015.47
2017-04-11T06:39:48.483Z,1015.49
2017-04-11T06:40:57.436Z,1015.54
2017-04-11T06:42:06.393Z,1015.5
2017-04-11T06:43:15.434Z,1015.44
2017-04-11T06:44:24.677Z,1015.52
2017-04-11T06:45:33.722Z,1015.54
2017-04-11T06:46:42.671Z,1015.51
2017-04-11T06:47:51.627Z,1015.47
2017-04-11T06:49:00.587Z,1015.47
2017-04-11T06:50:09.848Z,1015.5
2017-04-11T06:51:19.122Z,1015.6
2017-04-11T06:52:28.076Z,1015.56
2017-04-11T06:53:37.120Z,1015.58
2017-04-11T06:54:46.071Z,1015.51
2017-04-11T06:55:55.325Z,1015.5
2017-04-11T06:57:04.274Z,1015.53
2017-04-11T06:58:13.229Z,1015.49
2017-04-11T06:59:22.188Z,1015.42
2017-04-11T07:00:31.142Z,1015.51
2017-04-11T07:01:40.404Z,1015.52
2017-04-11T07:02:49.555Z,1015.49
2017-04-11T07:03:58.511Z,1015.44
2017-04-11T07:05:07.459Z,1015.49
2017-04-11T07:06:16.455Z,1015.44
2017-04-11T07:07:25.888Z,1015.46
2017-04-11T07:08:34.842Z,1015.45
2017-04-11T07:09:43.943Z,1015.4
2017-04-11T07:10:52.985Z,1015.46
2017-04-11T07:12:02.006Z,1015.38
2017-04-11T07:13:11.208Z,1015.39
2017-04-11T07:14:20.158Z,1015.38
2017-04-11T07:15:29.222Z,1015.38
2017-04-11T07:16:38.336Z,1015.41
2017-04-11T07:17:47.302Z,1015.41
2017-04-11T07:18:56.507Z,1015.4
2017-04-11T07:20:05.929Z,1015.42
2017-04-11T07:21:15.318Z,1015.37
2017-04-11T07:22:24.272Z,1015.4
2017-04-11T07:23:33.229Z,1015.39
2017-04-11T07:24:42.433Z,1015.48
2017-04-11T07:25:51.389Z,1015.41
2017-04-11T07:27:00.763Z,1015.38
2017-04-11T07:28:22.175Z,1015.42
2017-04-11T07:29:44.454Z,1015.38
2017-04-11T07:31:05.469Z,1015.42
2017-04-11T07:32:14.418Z,1015.45
2017-04-11T07:33:23.461Z,1015.47
2017-04-11T07:34:32.413Z,1015.47
2017-04-11T07:35:41.616Z,1015.43
2017-04-11T07:36:50.728Z,1015.4
2017-04-11T07:38:00.174Z,1015.44
2017-04-11T07:39:09.292Z,1015.44
2017-04-11T07:40:18.284Z,1015.46
2017-04-11T07:41:27.794Z,1015.52
2017-04-11T07:42:36.921Z,1015.57
2017-04-11T07:43:45.881Z,1015.62
2017-04-11T07:44:54.974Z,1015.64
2017-04-11T07:46:04.016Z,1015.6
2017-04-11T07:47:13.217Z,1015.64
2017-04-11T07:48:22.177Z,1015.56
2017-04-11T07:49:31.133Z,1015.57
2017-04-11T07:50:40.173Z,1015.54
2017-04-11T07:51:49.123Z,1015.58
2017-04-11T07:52:58.328Z,1015.56
2017-04-11T07:54:07.284Z,1015.55
2017-04-11T07:55:16.241Z,1015.54
2017-04-11T07:56:25.202Z,1015.54
2017-04-11T07:57:34.154Z,1015.53
2017-04-11T07:58:43.407Z,1015.56
2017-04-11T07:59:52.452Z,1015.58
2017-04-11T08:01:01.404Z,1015.6
2017-04-11T08:02:10.358Z,1015.54
2017-04-11T08:03:19.311Z,1015.6
2017-04-11T08:04:28.572Z,1015.53
2017-04-11T08:05:37.840Z,1015.53
2017-04-11T08:06:46.801Z,1015.65
2017-04-11T08:07:55.846Z,1015.61
2017-04-11T08:09:04.801Z,1015.59
2017-04-11T08:10:14.055Z,1015.68
2017-04-11T08:11:23.005Z,1015.64
2017-04-11T08:12:31.958Z,1015.68
2017-04-11T08:13:40.916Z,1015.7
2017-04-11T08:14:49.868Z,1015.61
2017-04-11T08:15:59.072Z,1015.77
2017-04-11T08:17:08.035Z,1015.69
2017-04-11T08:18:16.986Z,1015.76
2017-04-11T08:19:25.934Z,1015.69
2017-04-11T08:20:34.885Z,1015.74
2017-04-11T08:21:44.090Z,1015.71
2017-04-11T08:22:53.042Z,1015.65
2017-04-11T08:24:02.035Z,1015.73
2017-04-11T08:25:11.000Z,1015.76
2017-04-11T08:26:20.041Z,1015.68
2017-04-11T08:27:29.244Z,1015.67
2017-04-11T08:28:38.199Z,1015.73
2017-04-11T08:29:47.484Z,1015.77
2017-04-11T08:30:56.435Z,1015.77
2017-04-11T08:32:05.410Z,1015.75
2017-04-11T08:33:14.696Z,1015.65
2017-04-11T08:34:23.739Z,1015.82
2017-04-11T08:35:32.689Z,1015.79
2017-04-11T08:36:41.645Z,1015.9
2017-04-11T08:37:50.599Z,1015.81
2017-04-11T08:38:59.939Z,1015.82
2017-04-11T08:40:09.444Z,1015.86
2017-04-11T08:41:18.573Z,1015.83
2017-04-11T08:42:27.525Z,1015.78
2017-04-11T08:43:36.488Z,1015.86
2017-04-11T08:44:46.066Z,1015.8
2017-04-11T08:45:55.112Z,1015.8
2017-04-11T08:47:04.066Z,1015.82
2017-04-11T08:48:13.026Z,1015.77
2017-04-11T08:49:21.990Z,1015.78
2017-04-11T08:50:31.191Z,1015.83
2017-04-11T08:51:40.147Z,1015.7
2017-04-11T08:52:49.103Z,1015.7
2017-04-11T08:53:58.071Z,1015.85
2017-04-11T08:55:07.021Z,1015.83
2017-04-11T08:56:16.228Z,1015.84
2017-04-11T08:57:25.199Z,1015.87
2017-04-11T08:58:34.171Z,1015.82
2017-04-11T08:59:43.129Z,1015.78
2017-04-11T09:00:52.095Z,1015.83
2017-04-11T09:02:01.384Z,1015.79
2017-04-11T09:03:10.343Z,1015.77
2017-04-11T09:04:19.289Z,1015.95
2017-04-11T09:05:28.247Z,1015.94
2017-04-11T09:06:37.199Z,1015.96
2017-04-11T09:07:46.493Z,1016.04
2017-04-11T09:08:55.448Z,1016.02
2017-04-11T09:10:04.400Z,1015.98
2017-04-11T09:11:13.357Z,1016.03
2017-04-11T09:12:22.324Z,1015.98
2017-04-11T09:13:31.536Z,1015.97
2017-04-11T09:14:40.584Z,1016.06
2017-04-11T09:15:49.534Z,1016.03
2017-04-11T09:16:59.079Z,1016.15
2017-04-11T09:18:08.129Z,1016.15
2017-04-11T09:19:17.339Z,1016.1
2017-04-11T09:20:26.309Z,1016.14
2017-04-11T09:21:35.625Z,1016.15
2017-04-11T09:22:44.583Z,1016.06
2017-04-11T09:23:53.536Z,1015.98
2017-04-11T09:25:02.741Z,1016.06
2017-04-11T09:26:11.787Z,1016.07
2017-04-11T09:27:20.828Z,1016.06
2017-04-11T09:28:29.793Z,1015.99
2017-04-11T09:29:39.204Z,1016.09
2017-04-11T09:30:48.422Z,1016.09
2017-04-11T09:31:57.718Z,1016.16
2017-04-11T09:33:06.671Z,1016.15
2017-04-11T09:34:15.646Z,1016.2
2017-04-11T09:35:24.602Z,1016.19
2017-04-11T09:36:33.865Z,1016.36
2017-04-11T09:37:42.822Z,1016.41
2017-04-11T09:38:51.775Z,1016.42
2017-04-11T09:40:00.725Z,1016.48
2017-04-11T09:41:09.710Z,1016.52
2017-04-11T09:42:18.919Z,1016.55
2017-04-11T09:43:27.875Z,1016.61
2017-04-11T09:44:36.914Z,1016.54
2017-04-11T09:45:45.872Z,1016.7
2017-04-11T09:46:54.822Z,1016.67
2017-04-11T09:48:04.077Z,1016.66
2017-04-11T09:49:13.035Z,1016.64
2017-04-11T09:50:22.080Z,1016.56
2017-04-11T09:51:31.038Z,1016.56
2017-04-11T09:52:40.090Z,1016.51
2017-04-11T09:53:49.305Z,1016.49
2017-04-11T09:54:58.274Z,1016.53
2017-04-11T09:56:07.230Z,1016.49
2017-04-11T09:57:16.190Z,1016.54
2017-04-11T09:58:25.146Z,1016.55
2017-04-11T09:59:34.405Z,1016.48
2017-04-11T10:00:43.361Z,1016.52
2017-04-11T10:01:52.308Z,1016.51
2017-04-11T10:03:01.380Z,1016.51
2017-04-11T10:04:10.339Z,1016.52
2017-04-11T10:05:19.693Z,1016.48
2017-04-11T10:06:29.743Z,1016.51
2017-04-11T10:07:38.699Z,1016.43
2017-04-11T10:08:47.657Z,1016.44
2017-04-11T10:09:56.610Z,1016.44
2017-04-11T10:11:05.955Z,1016.41
2017-04-11T10:12:15.003Z,1016.38
2017-04-11T10:13:24.045Z,1016.43
2017-04-11T10:14:32.997Z,1016.35
2017-04-11T10:15:41.951Z,1016.36
2017-04-11T10:16:51.152Z,1016.32
2017-04-11T10:18:00.102Z,1016.26
2017-04-11T10:19:09.052Z,1016.24
2017-04-11T10:20:18.015Z,1016.23
2017-04-11T10:21:26.966Z,1016.21
2017-04-11T10:22:36.178Z,1016.3
2017-04-11T10:23:45.137Z,1016.21
2017-04-11T10:24:54.098Z,1016.28
2017-04-11T10:26:03.139Z,1016.24
2017-04-11T10:27:12.103Z,1016.27
2017-04-11T10:28:21.308Z,1016.16
2017-04-11T10:29:30.268Z,1016.17
2017-04-11T10:30:39.545Z,1016.22
2017-04-11T10:31:48.592Z,1016.2
2017-04-11T10:32:57.557Z,1016.19
2017-04-11T10:34:06.765Z,1016.16
2017-04-11T10:35:15.719Z,1016.17
2017-04-11T10:36:24.667Z,1016.16
2017-04-11T10:37:33.626Z,1016.15
2017-04-11T10:38:42.579Z,1016.22
2017-04-11T10:39:51.782Z,1016.19
2017-04-11T10:41:00.738Z,1016.15
2017-04-11T10:42:09.785Z,1016.1
2017-04-11T10:43:18.743Z,1016.13
2017-04-11T10:44:27.707Z,1016.2
2017-04-11T10:45:36.917Z,1016.18
2017-04-11T10:46:45.912Z,1016.3
2017-04-11T10:47:54.862Z,1016.21
2017-04-11T10:49:03.822Z,1016.22
2017-04-11T10:50:13.105Z,1016.24
2017-04-11T10:51:22.370Z,1016.24
2017-04-11T10:52:31.330Z,1016.2
2017-04-11T10:53:40.369Z,1016.29
2017-04-11T10:54:49.318Z,1016.39
2017-04-11T10:55:58.270Z,1016.43
2017-04-11T10:57:07.531Z,1016.3
2017-04-11T10:58:16.483Z,1016.3
2017-04-11T10:59:25.523Z,1016.3
2017-04-11T11:00:34.479Z,1016.33
2017-04-11T11:01:43.766Z,1016.31
2017-04-11T11:02:52.971Z,1016.33
2017-04-11T11:04:01.925Z,1016.27
2017-04-11T11:05:10.877Z,1016.36
2017-04-11T11:06:19.916Z,1016.41
2017-04-11T11:07:28.865Z,1016.37
2017-04-11T11:08:38.118Z,1016.25
2017-04-11T11:09:47.072Z,1016.22
2017-04-11T11:10:56.026Z,1016.34
2017-04-11T11:12:04.980Z,1016.4
2017-04-11T11:13:13.939Z,1016.38
2017-04-11T11:14:23.195Z,1016.33
2017-04-11T11:15:32.149Z,1016.36
2017-04-11T11:16:41.099Z,1016.33
2017-04-11T11:17:50.076Z,1016.27
2017-04-11T11:18:59.061Z,1016.4
2017-04-11T11:20:08.266Z,1016.4
2017-04-11T11:21:17.230Z,1016.47
2017-04-11T11:22:26.184Z,1016.42
2017-04-11T11:23:35.139Z,1016.44
2017-04-11T11:24:44.101Z,1016.44
2017-04-11T11:25:53.309Z,1016.47
2017-04-11T11:27:02.303Z,1016.47
2017-04-11T11:28:11.348Z,1016.57
2017-04-11T11:29:20.300Z,1016.58
2017-04-11T11:30:29.255Z,1016.57
2017-04-11T11:31:38.544Z,1016.53
2017-04-11T11:32:47.498Z,1016.49
2017-04-11T11:33:56.472Z,1016.57
2017-04-11T11:35:05.431Z,1016.62
2017-04-11T11:36:14.392Z,1016.68
2017-04-11T11:37:23.650Z,1016.67
2017-04-11T11:38:32.602Z,1016.69
2017-04-11T11:39:41.559Z,1016.68
2017-04-11T11:40:50.518Z,1016.7
2017-04-11T11:41:59.894Z,1016.69
2017-04-11T11:43:09.193Z,1016.67
2017-04-11T11:44:18.237Z,1016.73
2017-04-11T11:45:27.529Z,1016.73
2017-04-11T11:46:36.485Z,1016.72
2017-04-11T11:47:45.441Z,1016.75
2017-04-11T11:48:54.698Z,1016.75
2017-04-11T11:50:03.980Z,1016.69
2017-04-11T11:51:12.941Z,1016.7
2017-04-11T11:52:21.903Z,1016.64
2017-04-11T11:53:30.866Z,1016.68
2017-04-11T11:54:40.158Z,1016.69
2017-04-11T11:55:49.108Z,1016.71
2017-04-11T11:56:58.062Z,1016.64
2017-04-11T11:58:07.012Z,1016.54
2017-04-11T11:59:15.972Z,1016.66
2017-04-11T12:00:25.311Z,1016.76
2017-04-11T12:01:34.347Z,1016.69
2017-04-11T12:02:43.391Z,1016.77
2017-04-11T12:03:52.676Z,1016.64
2017-04-11T12:05:01.638Z,1016.59
2017-04-11T12:06:10.840Z,1016.59
2017-04-11T12:07:19.792Z,1016.58
2017-04-11T12:08:28.745Z,1016.57
2017-04-11T12:09:37.701Z,1016.54
2017-04-11T12:10:46.659Z,1016.51
2017-04-11T12:11:55.871Z,1016.52
2017-04-11T12:13:04.820Z,1016.42
2017-04-11T12:14:13.779Z,1016.43
2017-04-11T12:15:22.740Z,1016.41
2017-04-11T12:16:31.695Z,1016.38
2017-04-11T12:17:40.947Z,1016.38
2017-04-11T12:18:49.903Z,1016.3
2017-04-11T12:19:58.859Z,1016.26
2017-04-11T12:21:07.815Z,1016.24
2017-04-11T12:22:16.868Z,1016.19
2017-04-11T12:23:26.072Z,1016.14
2017-04-11T12:24:35.030Z,1016.11
2017-04-11T12:25:44.083Z,1016.12
2017-04-11T12:26:53.033Z,1016.12
2017-04-11T12:28:01.992Z,1016.18
2017-04-11T12:29:11.192Z,1016.25
2017-04-11T12:30:20.159Z,1016.16
2017-04-11T12:31:29.120Z,1016.26
2017-04-11T12:32:38.070Z,1016.22
2017-04-11T12:33:47.020Z,1016.26
2017-04-11T12:34:56.235Z,1016.28
2017-04-11T12:36:05.188Z,1016.24
2017-04-11T12:37:14.148Z,1016.27
2017-04-11T12:38:23.195Z,1016.25
2017-04-11T12:39:32.157Z,1016.24
2017-04-11T12:40:41.409Z,1016.21
2017-04-11T12:41:50.461Z,1016.18
2017-04-11T12:42:59.434Z,1016.17
2017-04-11T12:44:08.394Z,1016.18
2017-04-11T12:45:17.349Z,1016.18
2017-04-11T12:46:26.556Z,1016.22
2017-04-11T12:47:35.587Z,1016.09
2017-04-11T12:48:44.673Z,1016.1
2017-04-11T12:49:54.019Z,1016.11
2017-04-11T12:51:03.057Z,1016.11
2017-04-11T12:52:12.548Z,1016.04
2017-04-11T12:53:21.665Z,1016.02
2017-04-11T12:54:30.724Z,1016.12
2017-04-11T12:55:39.730Z,1016.08
2017-04-11T12:56:48.888Z,1016.16
2017-04-11T12:57:58.251Z,1016.1
2017-04-11T12:59:07.337Z,1016.15
2017-04-11T13:00:16.371Z,1016.13
2017-04-11T13:01:25.362Z,1016.12
2017-04-11T13:02:34.379Z,1016.12
2017-04-11T13:03:43.870Z,1016.05
2017-04-11T13:04:52.825Z,1016.12
2017-04-11T13:06:02.050Z,1016.19
2017-04-11T13:07:11.302Z,1016.38
2017-04-11T13:08:20.344Z,1016.25
2017-04-11T13:09:29.885Z,1016.15
2017-04-11T13:10:39.036Z,1016.2
2017-04-11T13:11:48.272Z,1016.18
2017-04-11T13:12:57.438Z,1016.13
2017-04-11T13:14:06.417Z,1016.25
2017-04-11T13:15:15.767Z,1016.22
2017-04-11T13:16:25.152Z,1016.27
2017-04-11T13:17:34.267Z,1016.2
2017-04-11T13:18:43.236Z,1016.23
2017-04-11T13:19:52.341Z,1016.24
2017-04-11T13:21:01.867Z,1016.1
2017-04-11T13:22:10.823Z,1016.11
2017-04-11T13:23:19.782Z,1016.15
2017-04-11T13:24:29.153Z,1016.14
2017-04-11T13:25:38.115Z,1016.13
2017-04-11T13:26:47.317Z,1016.01
2017-04-11T13:27:56.276Z,1016.05
2017-04-11T13:29:05.239Z,1016.03
2017-04-11T13:30:14.285Z,1016.05
2017-04-11T13:31:23.241Z,1016.04
2017-04-11T13:32:32.536Z,1015.98
2017-04-11T13:33:41.583Z,1015.96
2017-04-11T13:34:50.542Z,1015.97
2017-04-11T13:35:59.825Z,1016.08
2017-04-11T13:37:08.789Z,1016.06
2017-04-11T13:38:18.045Z,1015.95
2017-04-11T13:39:27.006Z,1015.94
2017-04-11T13:40:35.964Z,1015.93
2017-04-11T13:41:44.919Z,1016.01
2017-04-11T13:42:53.963Z,1015.93
2017-04-11T13:44:03.229Z,1015.91
2017-04-11T13:45:12.203Z,1015.86
2017-04-11T13:46:21.949Z,1015.86
2017-04-11T13:47:31.164Z,1015.94
2017-04-11T13:48:40.122Z,1015.95
2017-04-11T13:49:49.374Z,1015.87
2017-04-11T13:50:58.330Z,1015.96
2017-04-11T13:52:07.292Z,1015.96
2017-04-11T13:53:17.132Z,1015.9
2017-04-11T13:54:26.255Z,1015.98
2017-04-11T13:55:35.638Z,1016.03
2017-04-11T13:56:44.741Z,1015.85
2017-04-11T13:57:53.782Z,1015.95
2017-04-11T13:59:02.739Z,1015.93